Mac Andrew Mckinney — WDF8971 — position and weather

sailwx.info

Track history (hours):
 
Tides and Currents Weather Stations Pressure Air Temp Water Temp Dewpoint Dewpoint Depression Visibility Wind Speed Wind Dir Waves Ship Positions

Mac Andrew Mckinney

Owner: McKinney Marine, Inc, Baton Rouge, LA. More information available from US FCC via Universal Licensing System and Coast Guard Vessel Documentation Center.

Last reported at 2017-Nov-20 00:31 UTC. Time now 2017-Nov-21 21:09 UTC.
Position N 29°37' W 094°57'.

Length 21 m; draft 3 m.

Type: Tug. MMSI: 367500460.

Date/timePositionNaut miles runAvg speedWind from/ knotsBaromVisibWave heightAir tempDewpointWater temp
2017-Nov-20 00:31N 29°37' W 094°57'4 8.1
2017-Nov-20 00:01N 29°34' W 094°55'4 8.7
2017-Nov-19 23:31N 29°30' W 094°52'0 0.0
2017-Nov-18 01:19N 29°30' W 094°52'1 4.8
2017-Nov-18 01:00N 29°31' W 094°53'2 4.6
2017-Nov-18 00:31N 29°33' W 094°55'3 5.1
2017-Nov-18 00:01N 29°35' W 094°56'2 4.9
2017-Nov-17 23:31N 29°38' W 094°58'3 5.2
2017-Nov-17 23:01N 29°40' W 094°59'2 4.8
2017-Nov-17 22:30N 29°42' W 095°00'2 3.8
2017-Nov-17 22:00N 29°44' W 095°02'2 4.4
2017-Nov-17 21:30N 29°45' W 095°04'3 1.3
2017-Nov-17 19:26N 29°47' W 095°04'2 0.7
2017-Nov-17 16:50N 29°46' W 095°05'2 0.2
2017-Nov-17 07:26N 29°47' W 095°04'2 3.3
2017-Nov-17 06:58N 29°46' W 095°05'3 5.7
2017-Nov-17 06:30N 29°44' W 095°03'2 4.9
2017-Nov-17 06:00N 29°42' W 095°01'3 5.6
2017-Nov-17 05:30N 29°40' W 094°59'3 6.3
2017-Nov-17 05:00N 29°37' W 094°57'3 6.2
2017-Nov-17 04:30N 29°34' W 094°56'3 6.4
2017-Nov-17 04:00N 29°32' W 094°54'55 3.3
2017-Nov-16 11:03N 29°53' W 093°55'0 5.4
2017-Nov-16 10:59N 29°54' W 093°54'4 5.4
2017-Nov-16 10:13N 29°57' W 093°52'1 5.0
2017-Nov-16 10:00N 29°58' W 093°51'0 0.7
2017-Nov-16 09:29N 29°58' W 093°51'0 0.0
2017-Nov-16 09:00N 29°58' W 093°51'6 1.8
2017-Nov-16 05:44N 30°01' W 093°45'1 5.0
2017-Nov-16 05:30N 30°02' W 093°44'3 5.1
2017-Nov-16 04:50N 30°04' W 093°41'3 4.3
2017-Nov-16 04:12N 30°04' W 093°37'2 5.7
2017-Nov-16 03:50N 30°04' W 093°35'2 5.5
2017-Nov-16 03:27N 30°04' W 093°33'2 5.6
2017-Nov-16 03:00N 30°04' W 093°30'3 5.5
2017-Nov-16 02:30N 30°04' W 093°27'3 5.5
2017-Nov-16 02:00N 30°04' W 093°23'2 3.9
2017-Nov-16 01:30N 30°04' W 093°21'2 4.4
2017-Nov-16 01:00N 30°05' W 093°20'1 1.5
2017-Nov-16 00:30N 30°06' W 093°19'0 0.0
2017-Nov-16 00:00N 30°06' W 093°19'1 1.8
2017-Nov-15 23:30N 30°06' W 093°18'1 1.4
2017-Nov-15 23:00N 30°05' W 093°17'2 4.7
2017-Nov-15 22:30N 30°03' W 093°16'1 2.2
2017-Nov-15 22:00N 30°02' W 093°15'2 4.3
2017-Nov-15 21:30N 30°01' W 093°14'2 3.9
2017-Nov-15 21:00N 29°59' W 093°12'2 4.6
2017-Nov-15 20:30N 29°57' W 093°11'2 4.3
2017-Nov-15 20:00N 29°56' W 093°09'2 4.5
2017-Nov-15 19:30N 29°56' W 093°06'2 3.5
2017-Nov-15 19:00N 29°56' W 093°04'0 0.1
2017-Nov-15 18:30N 29°56' W 093°04'0 0.0
2017-Nov-15 18:00N 29°56' W 093°04'0 0.1
2017-Nov-15 17:30N 29°56' W 093°04'1 2.5
2017-Nov-15 16:59N 29°56' W 093°03'10 4.6
2017-Nov-15 14:52N 29°57' W 092°51'21 4.8
2017-Nov-15 10:32N 29°54' W 092°28'0 4.9
2017-Nov-15 10:27N 29°54' W 092°27'3 5.0
2017-Nov-15 09:52N 29°53' W 092°24'3 4.7
2017-Nov-15 09:19N 29°51' W 092°22'1 4.6
2017-Nov-15 09:01N 29°51' W 092°20'2 4.6
2017-Nov-15 08:30N 29°50' W 092°18'2 4.5
2017-Nov-15 08:01N 29°48' W 092°16'2 4.9
2017-Nov-15 07:31N 29°47' W 092°13'1 2.3
2017-Nov-15 07:01N 29°47' W 092°12'1 1.5
2017-Nov-15 06:31N 29°47' W 092°11'0 0.0
2017-Nov-15 06:01N 29°47' W 092°11'0 0.1
2017-Nov-15 05:31N 29°47' W 092°11'0 0.8
2017-Nov-15 05:01N 29°47' W 092°11'2 3.6
2017-Nov-15 04:31N 29°47' W 092°09'3 5.2
2017-Nov-15 04:01N 29°48' W 092°06'3 5.0
2017-Nov-15 03:31N 29°49' W 092°03'2 5.0
2017-Nov-15 03:01N 29°50' W 092°00'3 5.1
2017-Nov-15 02:31N 29°50' W 091°58'3 5.2
2017-Nov-15 02:01N 29°51' W 091°55'3 0.1
2017-Nov-14 06:13N 29°50' W 091°58'1 4.4
2017-Nov-14 05:57N 29°50' W 091°59'2 4.2
2017-Nov-14 05:29N 29°49' W 092°01'2 4.3
2017-Nov-14 04:59N 29°49' W 092°03'2 4.1
2017-Nov-14 04:29N 29°48' W 092°06'2 4.2
2017-Nov-14 03:59N 29°47' W 092°08'2 3.8
2017-Nov-14 03:29N 29°47' W 092°10'1 1.8
2017-Nov-14 02:59N 29°47' W 092°11'0 0.0
2017-Nov-14 02:29N 29°47' W 092°11'0 0.0
2017-Nov-14 01:59N 29°47' W 092°11'0 0.1
2017-Nov-14 01:30N 29°47' W 092°11'1 1.2
2017-Nov-14 01:00N 29°47' W 092°12'1 2.2
2017-Nov-14 00:30N 29°47' W 092°13'1 2.1
2017-Nov-13 23:59N 29°48' W 092°14'0 0.9
2017-Nov-13 23:29N 29°48' W 092°14'1 1.0
2017-Nov-13 22:58N 29°48' W 092°15'0 0.1
2017-Nov-13 22:30N 29°48' W 092°15'0 0.0
2017-Nov-13 22:00N 29°48' W 092°15'59 2.8
2017-Nov-13 01:04N 30°04' W 093°21'0 3.8
2017-Nov-13 00:59N 30°04' W 093°21'1 1.6
2017-Nov-13 00:29N 30°04' W 093°22'0 0.0
2017-Nov-12 23:59N 30°04' W 093°22'0 0.2
2017-Nov-12 23:29N 30°04' W 093°22'0 1.0
2017-Nov-12 22:59N 30°04' W 093°21'0 1.0
2017-Nov-12 22:29N 30°04' W 093°22'0 1.0
2017-Nov-12 21:59N 30°04' W 093°21'1 1.1
2017-Nov-12 21:29N 30°04' W 093°22'0 0.1
2017-Nov-12 20:59N 30°04' W 093°22'0 0.2
2017-Nov-12 20:29N 30°04' W 093°22'1 1.4
2017-Nov-12 19:59N 30°04' W 093°23'2 4.8
2017-Nov-12 19:29N 30°04' W 093°26'2 4.9
2017-Nov-12 18:59N 30°04' W 093°28'57 3.6
2017-Nov-12 03:12N 29°35' W 094°25'24 3.1
2017-Nov-11 19:16N 29°30' W 094°52'2 6.2
2017-Nov-11 19:00N 29°31' W 094°53'3 6.2
2017-Nov-11 18:30N 29°34' W 094°55'3 6.3
2017-Nov-11 18:00N 29°37' W 094°57'3 6.5
2017-Nov-11 17:30N 29°40' W 094°59'3 6.2
2017-Nov-11 17:00N 29°42' W 095°01'3 5.5
2017-Nov-11 16:28N 29°44' W 095°03'3 4.7
2017-Nov-11 15:50N 29°47' W 095°04'0 0.2
2017-Nov-11 14:46N 29°47' W 095°04'0 1.7
2017-Nov-11 14:30N 29°47' W 095°04'0 0.2
2017-Nov-11 14:00N 29°47' W 095°04'0 0.2
2017-Nov-11 12:25N 29°47' W 095°04'2 4.4
2017-Nov-11 11:58N 29°46' W 095°06'0 0.3
2017-Nov-11 10:30N 29°46' W 095°05'2 2.7
2017-Nov-11 09:47N 29°47' W 095°04'0 0.1
2017-Nov-11 09:26N 29°47' W 095°04'2 3.0
2017-Nov-11 08:54N 29°46' W 095°05'2 5.9
2017-Nov-11 08:30N 29°44' W 095°03'3 6.2
2017-Nov-11 08:00N 29°42' W 095°01'4 7.1
2017-Nov-11 07:29N 29°39' W 094°58'3 7.1
2017-Nov-11 07:00N 29°36' W 094°57'4 7.1
2017-Nov-11 06:30N 29°33' W 094°54'4 7.6
2017-Nov-11 05:59N 29°30' W 094°52'76 4.2
2017-Nov-10 11:59N 30°04' W 093°34'3 5.8
2017-Nov-10 11:30N 30°04' W 093°31'3 5.9
2017-Nov-10 11:00N 30°04' W 093°27'3 5.9
2017-Nov-10 10:30N 30°04' W 093°24'3 5.1
2017-Nov-10 10:00N 30°04' W 093°21'2 4.9
2017-Nov-10 09:30N 30°06' W 093°19'1 1.1
2017-Nov-10 09:00N 30°06' W 093°19'1 2.6
2017-Nov-10 08:30N 30°05' W 093°18'1 2.3
2017-Nov-10 08:00N 30°05' W 093°17'0 0.3
2017-Nov-10 07:30N 30°04' W 093°16'1 1.2
2017-Nov-10 07:00N 30°04' W 093°16'2 4.1
2017-Nov-10 06:30N 30°02' W 093°15'2 4.6
2017-Nov-10 06:00N 30°00' W 093°14'3 5.2
2017-Nov-10 05:30N 29°58' W 093°12'3 5.1
2017-Nov-10 05:00N 29°56' W 093°10'3 5.0
2017-Nov-10 04:30N 29°56' W 093°07'2 4.8
2017-Nov-10 04:00N 29°56' W 093°04'3 5.1
2017-Nov-10 03:30N 29°56' W 093°01'3 5.1
2017-Nov-10 03:00N 29°56' W 092°58'  
Track history (hours):
 
Tides and Currents Weather Stations Pressure Air Temp Water Temp Dewpoint Dewpoint Depression Visibility Wind Speed Wind Dir Waves Ship Positions

Mac Andrew Mckinney

Owner: McKinney Marine, Inc, Baton Rouge, LA. More information available from US FCC via Universal Licensing System and Coast Guard Vessel Documentation Center.

Last reported at 2017-Nov-20 00:31 UTC. Time now 2017-Nov-21 21:09 UTC.
Position N 29°37' W 094°57'.

Length 21 m; draft 3 m.

Type: Tug. MMSI: 367500460.

Date/timePositionNaut miles runAvg speedWind from/ knotsBaromVisibWave heightAir tempDewpointWater temp
2017-Nov-20 00:31N 29°37' W 094°57'4 8.1
2017-Nov-20 00:01N 29°34' W 094°55'4 8.7
2017-Nov-19 23:31N 29°30' W 094°52'0 0.0
2017-Nov-18 01:19N 29°30' W 094°52'1 4.8
2017-Nov-18 01:00N 29°31' W 094°53'2 4.6
2017-Nov-18 00:31N 29°33' W 094°55'3 5.1
2017-Nov-18 00:01N 29°35' W 094°56'2 4.9
2017-Nov-17 23:31N 29°38' W 094°58'3 5.2
2017-Nov-17 23:01N 29°40' W 094°59'2 4.8
2017-Nov-17 22:30N 29°42' W 095°00'2 3.8
2017-Nov-17 22:00N 29°44' W 095°02'2 4.4
2017-Nov-17 21:30N 29°45' W 095°04'3 1.3
2017-Nov-17 19:26N 29°47' W 095°04'2 0.7
2017-Nov-17 16:50N 29°46' W 095°05'2 0.2
2017-Nov-17 07:26N 29°47' W 095°04'2 3.3
2017-Nov-17 06:58N 29°46' W 095°05'3 5.7
2017-Nov-17 06:30N 29°44' W 095°03'2 4.9
2017-Nov-17 06:00N 29°42' W 095°01'3 5.6
2017-Nov-17 05:30N 29°40' W 094°59'3 6.3
2017-Nov-17 05:00N 29°37' W 094°57'3 6.2
2017-Nov-17 04:30N 29°34' W 094°56'3 6.4
2017-Nov-17 04:00N 29°32' W 094°54'55 3.3
2017-Nov-16 11:03N 29°53' W 093°55'0 5.4
2017-Nov-16 10:59N 29°54' W 093°54'4 5.4
2017-Nov-16 10:13N 29°57' W 093°52'1 5.0
2017-Nov-16 10:00N 29°58' W 093°51'0 0.7
2017-Nov-16 09:29N 29°58' W 093°51'0 0.0
2017-Nov-16 09:00N 29°58' W 093°51'6 1.8
2017-Nov-16 05:44N 30°01' W 093°45'1 5.0
2017-Nov-16 05:30N 30°02' W 093°44'3 5.1
2017-Nov-16 04:50N 30°04' W 093°41'3 4.3
2017-Nov-16 04:12N 30°04' W 093°37'2 5.7
2017-Nov-16 03:50N 30°04' W 093°35'2 5.5
2017-Nov-16 03:27N 30°04' W 093°33'2 5.6
2017-Nov-16 03:00N 30°04' W 093°30'3 5.5
2017-Nov-16 02:30N 30°04' W 093°27'3 5.5
2017-Nov-16 02:00N 30°04' W 093°23'2 3.9
2017-Nov-16 01:30N 30°04' W 093°21'2 4.4
2017-Nov-16 01:00N 30°05' W 093°20'1 1.5
2017-Nov-16 00:30N 30°06' W 093°19'0 0.0
2017-Nov-16 00:00N 30°06' W 093°19'1 1.8
2017-Nov-15 23:30N 30°06' W 093°18'1 1.4
2017-Nov-15 23:00N 30°05' W 093°17'2 4.7
2017-Nov-15 22:30N 30°03' W 093°16'1 2.2
2017-Nov-15 22:00N 30°02' W 093°15'2 4.3
2017-Nov-15 21:30N 30°01' W 093°14'2 3.9
2017-Nov-15 21:00N 29°59' W 093°12'2 4.6
2017-Nov-15 20:30N 29°57' W 093°11'2 4.3
2017-Nov-15 20:00N 29°56' W 093°09'2 4.5
2017-Nov-15 19:30N 29°56' W 093°06'2 3.5
2017-Nov-15 19:00N 29°56' W 093°04'0 0.1
2017-Nov-15 18:30N 29°56' W 093°04'0 0.0
2017-Nov-15 18:00N 29°56' W 093°04'0 0.1
2017-Nov-15 17:30N 29°56' W 093°04'1 2.5
2017-Nov-15 16:59N 29°56' W 093°03'10 4.6
2017-Nov-15 14:52N 29°57' W 092°51'21 4.8
2017-Nov-15 10:32N 29°54' W 092°28'0 4.9
2017-Nov-15 10:27N 29°54' W 092°27'3 5.0
2017-Nov-15 09:52N 29°53' W 092°24'3 4.7
2017-Nov-15 09:19N 29°51' W 092°22'1 4.6
2017-Nov-15 09:01N 29°51' W 092°20'2 4.6
2017-Nov-15 08:30N 29°50' W 092°18'2 4.5
2017-Nov-15 08:01N 29°48' W 092°16'2 4.9
2017-Nov-15 07:31N 29°47' W 092°13'1 2.3
2017-Nov-15 07:01N 29°47' W 092°12'1 1.5
2017-Nov-15 06:31N 29°47' W 092°11'0 0.0
2017-Nov-15 06:01N 29°47' W 092°11'0 0.1
2017-Nov-15 05:31N 29°47' W 092°11'0 0.8
2017-Nov-15 05:01N 29°47' W 092°11'2 3.6
2017-Nov-15 04:31N 29°47' W 092°09'3 5.2
2017-Nov-15 04:01N 29°48' W 092°06'3 5.0
2017-Nov-15 03:31N 29°49' W 092°03'2 5.0
2017-Nov-15 03:01N 29°50' W 092°00'3 5.1
2017-Nov-15 02:31N 29°50' W 091°58'3 5.2
2017-Nov-15 02:01N 29°51' W 091°55'3 0.1
2017-Nov-14 06:13N 29°50' W 091°58'1 4.4
2017-Nov-14 05:57N 29°50' W 091°59'2 4.2
2017-Nov-14 05:29N 29°49' W 092°01'2 4.3
2017-Nov-14 04:59N 29°49' W 092°03'2 4.1
2017-Nov-14 04:29N 29°48' W 092°06'2 4.2
2017-Nov-14 03:59N 29°47' W 092°08'2 3.8
2017-Nov-14 03:29N 29°47' W 092°10'1 1.8
2017-Nov-14 02:59N 29°47' W 092°11'0 0.0
2017-Nov-14 02:29N 29°47' W 092°11'0 0.0
2017-Nov-14 01:59N 29°47' W 092°11'0 0.1
2017-Nov-14 01:30N 29°47' W 092°11'1 1.2
2017-Nov-14 01:00N 29°47' W 092°12'1 2.2
2017-Nov-14 00:30N 29°47' W 092°13'1 2.1
2017-Nov-13 23:59N 29°48' W 092°14'0 0.9
2017-Nov-13 23:29N 29°48' W 092°14'1 1.0
2017-Nov-13 22:58N 29°48' W 092°15'0 0.1
2017-Nov-13 22:30N 29°48' W 092°15'0 0.0
2017-Nov-13 22:00N 29°48' W 092°15'59 2.8
2017-Nov-13 01:04N 30°04' W 093°21'0 3.8
2017-Nov-13 00:59N 30°04' W 093°21'1 1.6
2017-Nov-13 00:29N 30°04' W 093°22'0 0.0
2017-Nov-12 23:59N 30°04' W 093°22'0 0.2
2017-Nov-12 23:29N 30°04' W 093°22'0 1.0
2017-Nov-12 22:59N 30°04' W 093°21'0 1.0
2017-Nov-12 22:29N 30°04' W 093°22'0 1.0
2017-Nov-12 21:59N 30°04' W 093°21'1 1.1
2017-Nov-12 21:29N 30°04' W 093°22'0 0.1
2017-Nov-12 20:59N 30°04' W 093°22'0 0.2
2017-Nov-12 20:29N 30°04' W 093°22'1 1.4
2017-Nov-12 19:59N 30°04' W 093°23'2 4.8
2017-Nov-12 19:29N 30°04' W 093°26'2 4.9
2017-Nov-12 18:59N 30°04' W 093°28'57 3.6
2017-Nov-12 03:12N 29°35' W 094°25'24 3.1
2017-Nov-11 19:16N 29°30' W 094°52'2 6.2
2017-Nov-11 19:00N 29°31' W 094°53'3 6.2
2017-Nov-11 18:30N 29°34' W 094°55'3 6.3
2017-Nov-11 18:00N 29°37' W 094°57'3 6.5
2017-Nov-11 17:30N 29°40' W 094°59'3 6.2
2017-Nov-11 17:00N 29°42' W 095°01'3 5.5
2017-Nov-11 16:28N 29°44' W 095°03'3 4.7
2017-Nov-11 15:50N 29°47' W 095°04'0 0.2
2017-Nov-11 14:46N 29°47' W 095°04'0 1.7
2017-Nov-11 14:30N 29°47' W 095°04'0 0.2
2017-Nov-11 14:00N 29°47' W 095°04'0 0.2
2017-Nov-11 12:25N 29°47' W 095°04'2 4.4
2017-Nov-11 11:58N 29°46' W 095°06'0 0.3
2017-Nov-11 10:30N 29°46' W 095°05'2 2.7
2017-Nov-11 09:47N 29°47' W 095°04'0 0.1
2017-Nov-11 09:26N 29°47' W 095°04'2 3.0
2017-Nov-11 08:54N 29°46' W 095°05'2 5.9
2017-Nov-11 08:30N 29°44' W 095°03'3 6.2
2017-Nov-11 08:00N 29°42' W 095°01'4 7.1
2017-Nov-11 07:29N 29°39' W 094°58'3 7.1
2017-Nov-11 07:00N 29°36' W 094°57'4 7.1
2017-Nov-11 06:30N 29°33' W 094°54'4 7.6
2017-Nov-11 05:59N 29°30' W 094°52'76 4.2
2017-Nov-10 11:59N 30°04' W 093°34'3 5.8
2017-Nov-10 11:30N 30°04' W 093°31'3 5.9
2017-Nov-10 11:00N 30°04' W 093°27'3 5.9
2017-Nov-10 10:30N 30°04' W 093°24'3 5.1
2017-Nov-10 10:00N 30°04' W 093°21'2 4.9
2017-Nov-10 09:30N 30°06' W 093°19'1 1.1
2017-Nov-10 09:00N 30°06' W 093°19'1 2.6
2017-Nov-10 08:30N 30°05' W 093°18'1 2.3
2017-Nov-10 08:00N 30°05' W 093°17'0 0.3
2017-Nov-10 07:30N 30°04' W 093°16'1 1.2
2017-Nov-10 07:00N 30°04' W 093°16'2 4.1
2017-Nov-10 06:30N 30°02' W 093°15'2 4.6
2017-Nov-10 06:00N 30°00' W 093°14'3 5.2
2017-Nov-10 05:30N 29°58' W 093°12'3 5.1
2017-Nov-10 05:00N 29°56' W 093°10'3 5.0
2017-Nov-10 04:30N 29°56' W 093°07'2 4.8
2017-Nov-10 04:00N 29°56' W 093°04'3 5.1
2017-Nov-10 03:30N 29°56' W 093°01'3 5.1
2017-Nov-10 03:00N 29°56' W 092°58'  

Dump ship's entire track history